createdAt,value
2018-04-29T00:00:19.183Z,14.39
2018-04-29T00:02:45.063Z,14.40
2018-04-29T00:05:10.906Z,14.43
2018-04-29T00:07:36.738Z,14.46
2018-04-29T00:10:02.665Z,14.48
2018-04-29T00:12:28.524Z,14.46
2018-04-29T00:14:54.383Z,14.46
2018-04-29T00:17:20.228Z,14.49
2018-04-29T00:19:46.096Z,14.47
2018-04-29T00:22:11.936Z,14.41
2018-04-29T00:24:37.803Z,14.39
2018-04-29T00:27:03.652Z,14.37
2018-04-29T00:29:29.484Z,14.36
2018-04-29T00:31:55.378Z,14.35
2018-04-29T00:34:21.221Z,14.34
2018-04-29T00:36:47.096Z,14.28
2018-04-29T00:39:12.953Z,14.18
2018-04-29T00:41:38.828Z,14.11
2018-04-29T00:44:04.696Z,14.13
2018-04-29T00:46:30.551Z,14.16
2018-04-29T00:48:56.372Z,14.17
2018-04-29T00:51:24.132Z,14.15
2018-04-29T00:53:49.983Z,14.16
2018-04-29T00:56:15.829Z,14.12
2018-04-29T00:58:41.676Z,14.07
2018-04-29T01:01:07.538Z,14.09
2018-04-29T01:03:33.381Z,14.08
2018-04-29T01:05:59.295Z,14.03
2018-04-29T01:08:25.136Z,14.04
2018-04-29T01:10:50.994Z,14.04
2018-04-29T01:13:16.863Z,14.04
2018-04-29T01:15:42.711Z,14.07
2018-04-29T01:18:08.560Z,14.07
2018-04-29T01:20:34.418Z,14.03
2018-04-29T01:23:00.278Z,13.97
2018-04-29T01:25:26.118Z,13.94
2018-04-29T01:27:51.967Z,13.88
2018-04-29T01:30:17.826Z,13.97
2018-04-29T01:32:43.679Z,13.97
2018-04-29T01:35:09.513Z,13.97
2018-04-29T01:37:35.397Z,13.96
2018-04-29T01:40:01.262Z,13.90
2018-04-29T01:42:27.077Z,13.88
2018-04-29T01:44:52.975Z,13.92
2018-04-29T01:47:18.827Z,13.85
2018-04-29T01:49:44.684Z,13.79
2018-04-29T01:52:10.519Z,13.73
2018-04-29T01:54:36.388Z,13.69
2018-04-29T01:57:02.240Z,13.67
2018-04-29T01:59:28.105Z,13.61
2018-04-29T02:01:53.936Z,13.55
2018-04-29T02:04:19.799Z,13.49
2018-04-29T02:06:45.655Z,13.42
2018-04-29T02:09:11.504Z,13.40
2018-04-29T02:11:37.356Z,13.41
2018-04-29T02:14:03.223Z,13.43
2018-04-29T02:16:29.065Z,13.47
2018-04-29T02:18:54.925Z,13.47
2018-04-29T02:21:20.779Z,13.48
2018-04-29T02:23:46.630Z,13.46
2018-04-29T02:26:12.445Z,13.41
2018-04-29T02:28:38.308Z,13.44
2018-04-29T02:31:04.167Z,13.39
2018-04-29T02:33:30.020Z,13.41
2018-04-29T02:35:55.856Z,13.42
2018-04-29T02:38:21.699Z,13.42
2018-04-29T02:40:47.650Z,13.36
2018-04-29T02:43:13.448Z,13.31
2018-04-29T02:45:39.326Z,13.25
2018-04-29T02:48:05.171Z,13.15
2018-04-29T02:50:31.040Z,13.09
2018-04-29T02:52:56.893Z,13.03
2018-04-29T02:55:22.757Z,12.92
2018-04-29T02:57:48.595Z,12.79
2018-04-29T03:00:14.463Z,12.73
2018-04-29T03:02:40.297Z,12.68
2018-04-29T03:05:06.180Z,12.63
2018-04-29T03:07:32.049Z,12.58
2018-04-29T03:09:57.942Z,12.47
2018-04-29T03:12:23.775Z,12.43
2018-04-29T03:14:49.638Z,12.33
2018-04-29T03:17:15.507Z,12.28
2018-04-29T03:19:42.121Z,12.32
2018-04-29T03:22:07.983Z,12.30
2018-04-29T03:24:33.855Z,12.33
2018-04-29T03:26:59.711Z,12.36
2018-04-29T03:29:25.547Z,12.34
2018-04-29T03:31:51.419Z,12.37
2018-04-29T03:34:17.250Z,12.41
2018-04-29T03:36:43.102Z,12.49
2018-04-29T03:39:08.938Z,12.54
2018-04-29T03:41:34.815Z,12.58
2018-04-29T03:44:00.667Z,12.60
2018-04-29T03:46:26.556Z,12.57
2018-04-29T03:48:52.397Z,12.59
2018-04-29T03:51:18.253Z,12.54
2018-04-29T03:53:44.137Z,12.49
2018-04-29T03:56:09.969Z,12.48
2018-04-29T03:58:48.346Z,12.42
2018-04-29T04:01:26.732Z,12.36
2018-04-29T04:03:57.623Z,12.28
2018-04-29T04:06:23.523Z,12.16
2018-04-29T04:08:49.349Z,12.08
2018-04-29T04:11:15.197Z,11.97
2018-04-29T04:13:41.062Z,11.96
2018-04-29T04:16:06.920Z,11.94
2018-04-29T04:18:32.784Z,11.88
2018-04-29T04:20:58.638Z,11.86
2018-04-29T04:23:24.473Z,11.76
2018-04-29T04:25:50.323Z,11.76
2018-04-29T04:28:16.180Z,11.70
2018-04-29T04:30:42.051Z,11.68
2018-04-29T04:33:07.910Z,11.62
2018-04-29T04:35:33.772Z,11.59
2018-04-29T04:37:59.635Z,11.52
2018-04-29T04:40:25.495Z,11.49
2018-04-29T04:42:51.359Z,11.56
2018-04-29T04:45:17.218Z,11.49
2018-04-29T04:47:43.095Z,11.53
2018-04-29T04:50:08.941Z,11.48
2018-04-29T04:52:34.795Z,11.51
2018-04-29T04:55:00.623Z,11.48
2018-04-29T04:57:26.469Z,11.48
2018-04-29T04:59:52.316Z,11.46
2018-04-29T05:02:18.206Z,11.47
2018-04-29T05:04:44.062Z,11.47
2018-04-29T05:07:09.919Z,11.46
2018-04-29T05:09:35.766Z,11.53
2018-04-29T05:12:01.602Z,11.63
2018-04-29T05:14:27.450Z,11.61
2018-04-29T05:16:53.297Z,11.58
2018-04-29T05:19:19.149Z,11.60
2018-04-29T05:21:45.011Z,11.66
2018-04-29T05:24:10.896Z,11.78
2018-04-29T05:26:36.744Z,11.79
2018-04-29T05:29:02.610Z,11.83
2018-04-29T05:31:28.474Z,11.87
2018-04-29T05:33:54.346Z,11.88
2018-04-29T05:36:20.196Z,11.94
2018-04-29T05:38:46.040Z,12.02
2018-04-29T05:41:11.903Z,12.10
2018-04-29T05:43:37.755Z,12.13
2018-04-29T05:46:03.586Z,12.19
2018-04-29T05:48:29.433Z,12.22
2018-04-29T05:53:48.495Z,12.55
2018-04-29T05:56:14.355Z,12.84
2018-04-29T05:58:40.201Z,12.93
2018-04-29T06:01:06.064Z,12.97
2018-04-29T06:03:31.940Z,12.87
2018-04-29T06:05:57.783Z,13.15
2018-04-29T06:08:23.626Z,13.29
2018-04-29T06:10:49.499Z,13.41
2018-04-29T06:13:15.349Z,13.50
2018-04-29T06:15:41.241Z,13.61
2018-04-29T06:18:07.688Z,13.73
2018-04-29T06:20:33.622Z,13.79
2018-04-29T06:22:59.473Z,13.87
2018-04-29T06:25:25.345Z,13.86
2018-04-29T06:27:51.212Z,13.98
2018-04-29T06:30:17.121Z,13.97
2018-04-29T06:32:42.980Z,14.14
2018-04-29T06:35:08.866Z,14.26
2018-04-29T06:37:34.733Z,14.30
2018-04-29T06:40:00.607Z,14.34
2018-04-29T06:42:26.510Z,14.43
2018-04-29T06:44:52.917Z,14.44
2018-04-29T06:47:18.795Z,14.50
2018-04-29T06:49:44.667Z,14.56
2018-04-29T06:52:10.548Z,14.69
2018-04-29T06:54:36.451Z,14.73
2018-04-29T06:57:02.335Z,14.85
2018-04-29T06:59:28.207Z,14.88
2018-04-29T07:01:54.167Z,14.95
2018-04-29T07:04:20.111Z,14.99
2018-04-29T07:06:45.990Z,15.06
2018-04-29T07:09:11.870Z,15.17
2018-04-29T07:11:37.720Z,15.17
2018-04-29T07:14:19.518Z,15.23
2018-04-29T07:16:45.389Z,15.31
2018-04-29T07:19:11.280Z,15.42
2018-04-29T07:21:37.131Z,15.55
2018-04-29T07:24:02.990Z,15.57
2018-04-29T07:26:28.853Z,15.67
2018-04-29T07:28:54.707Z,15.76
2018-04-29T07:31:20.557Z,15.77
2018-04-29T07:33:46.394Z,15.76
2018-04-29T07:36:12.273Z,15.87
2018-04-29T07:38:38.194Z,15.94
2018-04-29T07:41:04.040Z,16.02
2018-04-29T07:43:29.898Z,16.07
2018-04-29T07:45:55.750Z,16.11
2018-04-29T07:48:21.765Z,16.24
2018-04-29T07:50:47.643Z,16.35
2018-04-29T07:53:13.528Z,16.43
2018-04-29T07:55:39.433Z,16.57
2018-04-29T07:58:05.290Z,16.69
2018-04-29T08:00:31.157Z,16.61
2018-04-29T08:02:57.021Z,16.68
2018-04-29T08:05:22.887Z,16.79
2018-04-29T08:07:48.748Z,16.91
2018-04-29T08:10:14.601Z,16.87
2018-04-29T08:12:40.490Z,16.91
2018-04-29T08:15:06.332Z,16.98
2018-04-29T08:17:32.200Z,17.09
2018-04-29T08:19:58.058Z,17.25
2018-04-29T08:22:23.915Z,17.29
2018-04-29T08:24:49.777Z,17.37
2018-04-29T08:27:15.810Z,17.39
2018-04-29T08:29:41.673Z,17.51
2018-04-29T08:32:07.538Z,17.56
2018-04-29T08:34:33.459Z,17.67
2018-04-29T08:36:59.347Z,17.67
2018-04-29T08:39:25.196Z,17.63
2018-04-29T08:41:51.141Z,17.71
2018-04-29T08:44:16.984Z,17.67
2018-04-29T08:46:42.855Z,17.76
2018-04-29T08:49:08.738Z,17.99
2018-04-29T08:51:34.613Z,18.09
2018-04-29T08:54:00.465Z,18.16
2018-04-29T08:56:26.355Z,18.20
2018-04-29T08:58:52.239Z,18.15
2018-04-29T09:01:18.097Z,18.25
2018-04-29T09:03:43.994Z,18.23
2018-04-29T09:06:09.879Z,18.23
2018-04-29T09:08:35.762Z,18.27
2018-04-29T09:11:01.624Z,18.23
2018-04-29T09:13:27.482Z,18.46
2018-04-29T09:15:53.372Z,18.48
2018-04-29T09:18:19.219Z,18.66
2018-04-29T09:20:45.071Z,18.78
2018-04-29T09:23:10.953Z,18.65
2018-04-29T09:25:36.820Z,18.75
2018-04-29T09:28:02.701Z,18.85
2018-04-29T09:30:28.576Z,18.85
2018-04-29T09:32:54.462Z,18.75
2018-04-29T09:35:20.379Z,18.88
2018-04-29T09:37:46.245Z,19.05
2018-04-29T09:40:12.117Z,19.17
2018-04-29T09:42:37.994Z,19.34
2018-04-29T09:45:03.874Z,19.33
2018-04-29T09:47:29.756Z,19.31
2018-04-29T09:49:55.667Z,19.35
2018-04-29T09:52:21.522Z,19.55
2018-04-29T09:54:47.383Z,19.59
2018-04-29T09:57:13.306Z,19.74
2018-04-29T09:59:39.164Z,19.78
2018-04-29T10:02:10.157Z,19.85
2018-04-29T10:04:36.027Z,20.04
2018-04-29T10:07:01.849Z,20.09
2018-04-29T10:09:27.780Z,20.05
2018-04-29T10:11:54.552Z,20.12
2018-04-29T10:14:20.453Z,20.23
2018-04-29T10:16:46.340Z,20.35
2018-04-29T10:19:12.205Z,20.30
2018-04-29T10:21:38.106Z,20.41
2018-04-29T10:24:03.972Z,20.62
2018-04-29T10:26:29.842Z,20.81
2018-04-29T10:28:55.711Z,20.90
2018-04-29T10:31:21.573Z,21.07
2018-04-29T10:33:47.452Z,21.16
2018-04-29T10:36:13.319Z,21.32
2018-04-29T10:38:39.180Z,21.51
2018-04-29T10:41:05.159Z,21.62
2018-04-29T10:43:31.052Z,21.52
2018-04-29T10:45:57.010Z,21.44
2018-04-29T10:48:22.969Z,21.50
2018-04-29T10:50:48.957Z,21.64
2018-04-29T10:53:14.841Z,21.81
2018-04-29T10:55:40.731Z,22.07
2018-04-29T10:58:06.656Z,22.39
2018-04-29T11:00:32.539Z,22.53
2018-04-29T11:02:58.436Z,22.59
2018-04-29T11:05:24.325Z,21.82
2018-04-29T11:07:50.185Z,21.91
2018-04-29T11:10:21.448Z,22.24
2018-04-29T11:12:47.471Z,22.23
2018-04-29T11:15:13.359Z,22.18
2018-04-29T11:17:39.215Z,21.67
2018-04-29T11:20:05.058Z,21.87
2018-04-29T11:22:30.950Z,22.09
2018-04-29T11:24:56.843Z,22.09
2018-04-29T11:27:22.754Z,22.23
2018-04-29T11:29:48.605Z,22.40
2018-04-29T11:32:14.481Z,22.44
2018-04-29T11:34:40.417Z,22.61
2018-04-29T11:37:06.228Z,22.70
2018-04-29T11:39:32.200Z,22.54
2018-04-29T11:41:58.074Z,22.41
2018-04-29T11:44:23.930Z,22.38
2018-04-29T11:46:49.779Z,22.70
2018-04-29T11:49:15.648Z,22.78
2018-04-29T11:51:41.511Z,22.63
2018-04-29T11:54:07.380Z,22.63
2018-04-29T11:56:33.252Z,22.53
2018-04-29T11:58:59.122Z,22.31
2018-04-29T12:01:24.993Z,22.12
2018-04-29T12:03:50.896Z,21.94
2018-04-29T12:06:16.753Z,22.03
2018-04-29T12:08:42.604Z,22.08
2018-04-29T12:11:08.478Z,22.32
2018-04-29T12:13:34.381Z,22.88
2018-04-29T12:16:00.296Z,23.01
2018-04-29T12:18:26.146Z,23.21
2018-04-29T12:20:51.990Z,23.28
2018-04-29T12:23:17.889Z,22.82
2018-04-29T12:25:43.774Z,22.50
2018-04-29T12:28:09.644Z,22.47
2018-04-29T12:30:35.490Z,22.55
2018-04-29T12:33:01.360Z,22.56
2018-04-29T12:35:27.215Z,22.60
2018-04-29T12:37:53.097Z,22.68
2018-04-29T12:40:18.989Z,22.83
2018-04-29T12:42:44.832Z,22.88
2018-04-29T12:45:10.698Z,22.85
2018-04-29T12:47:36.555Z,22.74
2018-04-29T12:50:02.479Z,22.86
2018-04-29T12:52:28.353Z,23.47
2018-04-29T12:54:54.283Z,23.74
2018-04-29T12:57:20.135Z,23.72
2018-04-29T12:59:46.011Z,23.47
2018-04-29T13:02:11.907Z,23.42
2018-04-29T13:04:37.800Z,23.25
2018-04-29T13:07:03.661Z,23.02
2018-04-29T13:09:29.507Z,22.78
2018-04-29T13:11:55.393Z,22.56
2018-04-29T13:14:21.286Z,22.59
2018-04-29T13:16:47.157Z,23.99
2018-04-29T13:19:13.022Z,24.89
2018-04-29T13:21:39.502Z,25.52
2018-04-29T13:24:05.353Z,25.49
2018-04-29T13:26:31.215Z,26.08
2018-04-29T13:28:57.117Z,26.09
2018-04-29T13:31:23.029Z,26.20
2018-04-29T13:33:48.904Z,26.12
2018-04-29T13:36:14.746Z,25.95
2018-04-29T13:38:40.637Z,26.34
2018-04-29T13:41:06.506Z,26.55
2018-04-29T13:43:32.354Z,26.69
2018-04-29T13:45:58.294Z,26.51
2018-04-29T13:48:24.154Z,26.50
2018-04-29T13:50:50.016Z,26.43
2018-04-29T13:53:15.943Z,26.66
2018-04-29T13:55:41.786Z,26.94
2018-04-29T13:58:07.621Z,27.24
2018-04-29T14:00:34.935Z,27.20
2018-04-29T14:03:00.818Z,27.36
2018-04-29T14:05:26.731Z,27.74
2018-04-29T14:07:52.561Z,27.71
2018-04-29T14:10:18.508Z,27.55
2018-04-29T14:12:44.332Z,27.53
2018-04-29T14:15:10.214Z,27.26
2018-04-29T14:17:36.091Z,27.46
2018-04-29T14:20:01.929Z,27.94
2018-04-29T14:22:27.843Z,27.83
2018-04-29T14:24:53.699Z,28.26
2018-04-29T14:27:19.567Z,28.38
2018-04-29T14:29:45.493Z,28.76
2018-04-29T14:32:12.097Z,28.28
2018-04-29T14:34:37.996Z,28.00
2018-04-29T14:37:03.911Z,27.18
2018-04-29T14:39:29.808Z,27.69
2018-04-29T14:41:55.692Z,28.51
2018-04-29T14:44:21.595Z,28.63
2018-04-29T14:46:47.445Z,28.73
2018-04-29T14:49:13.327Z,28.81
2018-04-29T14:51:39.292Z,28.87
2018-04-29T14:54:05.141Z,28.72
2018-04-29T14:56:30.997Z,27.91
2018-04-29T14:58:56.910Z,27.63
2018-04-29T15:01:22.843Z,28.24
2018-04-29T15:03:48.645Z,28.53
2018-04-29T15:06:14.569Z,28.60
2018-04-29T15:08:40.507Z,28.68
2018-04-29T15:11:06.380Z,28.56
2018-04-29T15:13:32.219Z,28.61
2018-04-29T15:15:58.087Z,27.89
2018-04-29T15:21:23.174Z,27.55
2018-04-29T15:23:49.039Z,27.29
2018-04-29T15:26:14.895Z,27.22
2018-04-29T15:28:41.110Z,26.74
2018-04-29T15:31:07.018Z,26.74
2018-04-29T15:33:32.873Z,26.25
2018-04-29T15:35:58.735Z,25.72
2018-04-29T15:38:24.590Z,25.77
2018-04-29T15:40:50.488Z,25.81
2018-04-29T15:43:16.410Z,25.58
2018-04-29T15:45:42.266Z,25.55
2018-04-29T15:48:08.173Z,25.14
2018-04-29T15:50:34.053Z,25.10
2018-04-29T15:52:59.912Z,25.14
2018-04-29T15:55:25.822Z,25.27
2018-04-29T15:57:51.724Z,24.93
2018-04-29T16:00:17.591Z,24.63
2018-04-29T16:02:43.482Z,24.57
2018-04-29T16:05:09.340Z,24.02
2018-04-29T16:07:35.241Z,23.91
2018-04-29T16:10:01.144Z,24.06
2018-04-29T16:12:27.026Z,23.99
2018-04-29T16:14:52.897Z,24.11
2018-04-29T16:17:18.760Z,23.76
2018-04-29T16:19:44.656Z,24.42
2018-04-29T16:22:10.500Z,26.72
2018-04-29T16:24:36.418Z,27.55
2018-04-29T16:27:02.307Z,28.46
2018-04-29T16:29:28.219Z,26.83
2018-04-29T16:31:54.114Z,27.22
2018-04-29T16:34:19.976Z,27.01
2018-04-29T16:36:46.548Z,25.90
2018-04-29T16:39:12.412Z,25.66
2018-04-29T16:41:38.360Z,24.80
2018-04-29T16:44:04.209Z,24.23
2018-04-29T16:46:30.131Z,24.08
2018-04-29T16:48:56.008Z,24.02
2018-04-29T16:51:21.857Z,23.98
2018-04-29T16:53:47.738Z,24.04
2018-04-29T16:56:13.591Z,24.14
2018-04-29T16:58:39.454Z,23.79
2018-04-29T17:01:05.321Z,23.76
2018-04-29T17:03:31.207Z,23.97
2018-04-29T17:05:57.104Z,23.96
2018-04-29T17:08:22.975Z,23.76
2018-04-29T17:10:48.882Z,23.84
2018-04-29T17:13:14.761Z,24.04
2018-04-29T17:15:40.619Z,23.99
2018-04-29T17:18:06.637Z,24.32
2018-04-29T17:20:32.600Z,24.93
2018-04-29T17:22:58.507Z,25.21
2018-04-29T17:25:24.395Z,25.28
2018-04-29T17:27:50.236Z,24.79
2018-04-29T17:30:16.101Z,24.19
2018-04-29T17:32:41.969Z,23.72
2018-04-29T17:35:07.878Z,23.48
2018-04-29T17:37:33.847Z,23.29
2018-04-29T17:39:59.694Z,22.74
2018-04-29T17:42:25.568Z,22.53
2018-04-29T17:44:51.487Z,22.58
2018-04-29T17:47:17.412Z,22.46
2018-04-29T17:49:43.373Z,22.44
2018-04-29T17:52:09.314Z,22.42
2018-04-29T17:54:35.174Z,22.35
2018-04-29T17:57:01.033Z,22.21
2018-04-29T17:59:26.992Z,22.22
2018-04-29T18:01:52.884Z,22.20
2018-04-29T18:04:18.803Z,21.89
2018-04-29T18:06:44.679Z,21.84
2018-04-29T18:09:10.575Z,21.55
2018-04-29T18:11:36.624Z,21.37
2018-04-29T18:14:02.554Z,21.25
2018-04-29T18:16:28.499Z,21.20
2018-04-29T18:18:54.401Z,21.08
2018-04-29T18:21:20.285Z,21.04
2018-04-29T18:23:46.198Z,20.93
2018-04-29T18:26:12.135Z,20.79
2018-04-29T18:28:38.019Z,20.69
2018-04-29T18:31:03.925Z,20.56
2018-04-29T18:33:29.829Z,20.49
2018-04-29T18:35:55.810Z,20.40
2018-04-29T18:38:21.731Z,20.31
2018-04-29T18:40:48.627Z,20.31
2018-04-29T18:43:14.526Z,20.21
2018-04-29T18:45:40.478Z,20.20
2018-04-29T18:48:06.545Z,20.19
2018-04-29T18:50:32.580Z,20.12
2018-04-29T18:52:58.392Z,20.06
2018-04-29T18:55:25.187Z,19.92
2018-04-29T18:57:51.093Z,19.87
2018-04-29T19:00:17.079Z,19.84
2018-04-29T19:02:42.961Z,19.78
2018-04-29T19:05:08.841Z,19.76
2018-04-29T19:07:49.703Z,19.64
2018-04-29T19:10:15.641Z,19.77
2018-04-29T19:12:41.565Z,19.68
2018-04-29T19:15:07.497Z,19.65
2018-04-29T19:17:33.402Z,19.58
2018-04-29T19:19:59.315Z,19.59
2018-04-29T19:22:25.179Z,19.56
2018-04-29T19:24:51.082Z,19.48
2018-04-29T19:27:17.983Z,19.44
2018-04-29T19:29:43.912Z,19.41
2018-04-29T19:32:09.794Z,19.44
2018-04-29T19:34:35.843Z,19.42
2018-04-29T19:37:01.782Z,19.30
2018-04-29T19:39:27.677Z,19.29
2018-04-29T19:41:53.601Z,19.31
2018-04-29T19:44:19.818Z,19.26
2018-04-29T19:46:45.706Z,19.18
2018-04-29T19:49:11.625Z,19.09
2018-04-29T19:51:37.485Z,19.04
2018-04-29T19:54:03.450Z,18.97
2018-04-29T19:56:29.934Z,18.95
2018-04-29T19:58:55.922Z,18.88
2018-04-29T20:01:21.816Z,18.81
2018-04-29T20:03:47.816Z,18.78
2018-04-29T20:06:13.693Z,18.78
2018-04-29T20:08:39.532Z,18.72
2018-04-29T20:11:05.488Z,18.74
2018-04-29T20:13:31.429Z,18.70
2018-04-29T20:15:57.351Z,18.66
2018-04-29T20:18:23.325Z,18.70
2018-04-29T20:20:49.134Z,18.62
2018-04-29T20:23:15.358Z,18.58
2018-04-29T20:25:42.443Z,18.55
2018-04-29T20:28:08.380Z,18.56
2018-04-29T20:30:34.301Z,18.54
2018-04-29T20:33:00.172Z,18.52
2018-04-29T20:35:26.089Z,18.48
2018-04-29T20:37:52.000Z,18.48
2018-04-29T20:40:17.893Z,18.49
2018-04-29T20:42:43.809Z,18.53
2018-04-29T20:45:09.666Z,18.44
2018-04-29T20:47:35.577Z,18.43
2018-04-29T20:50:01.491Z,18.31
2018-04-29T20:52:27.327Z,18.30
2018-04-29T20:54:53.267Z,18.35
2018-04-29T20:57:19.161Z,18.24
2018-04-29T20:59:45.070Z,18.17
2018-04-29T21:02:10.937Z,18.19
2018-04-29T21:04:36.843Z,18.22
2018-04-29T21:07:02.726Z,18.20
2018-04-29T21:09:28.611Z,18.14
2018-04-29T21:11:54.563Z,18.02
2018-04-29T21:14:20.426Z,18.07
2018-04-29T21:16:46.319Z,18.02
2018-04-29T21:19:12.188Z,17.94
2018-04-29T21:21:38.061Z,17.87
2018-04-29T21:24:03.951Z,17.84
2018-04-29T21:26:29.866Z,17.86
2018-04-29T21:28:55.760Z,17.88
2018-04-29T21:31:21.681Z,17.83
2018-04-29T21:33:47.530Z,17.77
2018-04-29T21:36:13.469Z,17.66
2018-04-29T21:38:39.352Z,17.66
2018-04-29T21:41:05.193Z,17.67
2018-04-29T21:43:31.073Z,17.73
2018-04-29T21:45:57.031Z,17.70
2018-04-29T21:48:22.940Z,17.64
2018-04-29T21:50:48.779Z,17.57
2018-04-29T21:53:14.688Z,17.60
2018-04-29T21:55:40.542Z,17.54
2018-04-29T21:58:06.434Z,17.53
2018-04-29T22:00:32.289Z,17.50
2018-04-29T22:02:58.130Z,17.46
2018-04-29T22:05:23.996Z,17.53
2018-04-29T22:07:49.842Z,17.53
2018-04-29T22:10:15.697Z,17.50
2018-04-29T22:12:41.534Z,17.49
2018-04-29T22:15:07.395Z,17.50
2018-04-29T22:17:33.244Z,17.47
2018-04-29T22:19:59.160Z,17.45
2018-04-29T22:22:24.999Z,17.49
2018-04-29T22:24:50.862Z,17.45
2018-04-29T22:27:16.727Z,17.49
2018-04-29T22:29:42.634Z,17.39
2018-04-29T22:32:08.481Z,17.34
2018-04-29T22:34:34.305Z,17.35
2018-04-29T22:37:00.219Z,17.31
2018-04-29T22:39:26.048Z,17.33
2018-04-29T22:41:51.907Z,17.24
2018-04-29T22:44:17.746Z,17.25
2018-04-29T22:46:43.608Z,17.22
2018-04-29T22:49:09.446Z,17.15
2018-04-29T22:51:35.285Z,17.11
2018-04-29T22:54:01.117Z,17.14
2018-04-29T22:56:26.983Z,17.19
2018-04-29T22:58:52.872Z,17.18
2018-04-29T23:01:18.740Z,17.13
2018-04-29T23:03:44.590Z,17.21
2018-04-29T23:06:10.448Z,17.28
2018-04-29T23:08:36.282Z,17.29
2018-04-29T23:11:02.154Z,17.29
2018-04-29T23:13:28.002Z,17.32
2018-04-29T23:15:53.855Z,17.29
2018-04-29T23:18:19.690Z,17.30
2018-04-29T23:20:45.549Z,17.31
2018-04-29T23:23:11.392Z,17.30
2018-04-29T23:25:37.264Z,17.30
2018-04-29T23:28:03.175Z,17.26
2018-04-29T23:30:29.201Z,17.24
2018-04-29T23:32:55.077Z,17.26
2018-04-29T23:35:20.979Z,17.24
2018-04-29T23:37:46.823Z,17.25
2018-04-29T23:40:12.680Z,17.29
2018-04-29T23:42:38.556Z,17.31
2018-04-29T23:45:04.408Z,17.22
2018-04-29T23:47:30.280Z,17.20
2018-04-29T23:49:56.121Z,17.21
2018-04-29T23:52:21.980Z,17.23
2018-04-29T23:54:47.841Z,17.17
2018-04-29T23:57:13.686Z,17.14
2018-04-29T23:59:39.575Z,17.15
